sensor_id;sensor_type;location;lat;lon;timestamp;pressure;altitude;pressure_sealevel;temperature;humidity
54389;BME280;40975;50.390;8.640;2023-04-02T00:02:58;98177.13;;;7.57;100.00
54389;BME280;40975;50.390;8.640;2023-04-02T00:08:02;98187.41;;;7.60;100.00
54389;BME280;40975;50.390;8.640;2023-04-02T00:13:02;98179.84;;;7.65;100.00
54389;BME280;40975;50.390;8.640;2023-04-02T00:15:28;98180.69;;;7.66;100.00
54389;BME280;40975;50.390;8.640;2023-04-02T00:17:54;98186.34;;;7.71;100.00
54389;BME280;40975;50.390;8.640;2023-04-02T00:20:19;98182.03;;;7.70;100.00
54389;BME280;40975;50.390;8.640;2023-04-02T00:22:46;98197.75;;;7.71;100.00
54389;BME280;40975;50.390;8.640;2023-04-02T00:25:13;98197.75;;;7.71;100.00
54389;BME280;40975;50.390;8.640;2023-04-02T00:27:38;98200.50;;;7.70;100.00
54389;BME280;40975;50.390;8.640;2023-04-02T00:30:05;98200.00;;;7.66;100.00
54389;BME280;40975;50.390;8.640;2023-04-02T00:32:32;98205.44;;;7.65;100.00
54389;BME280;40975;50.390;8.640;2023-04-02T00:35:00;98210.56;;;7.66;100.00
54389;BME280;40975;50.390;8.640;2023-04-02T00:37:30;98214.19;;;7.65;100.00
54389;BME280;40975;50.390;8.640;2023-04-02T00:40:13;98216.97;;;7.63;100.00
54389;BME280;40975;50.390;8.640;2023-04-02T00:42:41;98216.00;;;7.65;100.00
54389;BME280;40975;50.390;8.640;2023-04-02T00:45:28;98205.03;;;7.59;100.00
54389;BME280;40975;50.390;8.640;2023-04-02T00:47:57;98218.34;;;7.68;100.00
54389;BME280;40975;50.390;8.640;2023-04-02T00:50:27;98222.63;;;7.69;100.00
54389;BME280;40975;50.390;8.640;2023-04-02T00:52:55;98218.03;;;7.71;100.00
54389;BME280;40975;50.390;8.640;2023-04-02T00:55:37;98228.47;;;7.72;100.00
54389;BME280;40975;50.390;8.640;2023-04-02T00:58:11;98227.47;;;7.73;100.00
54389;BME280;40975;50.390;8.640;2023-04-02T01:00:47;98237.19;;;7.73;100.00
54389;BME280;40975;50.390;8.640;2023-04-02T01:05:43;98239.69;;;7.74;100.00
54389;BME280;40975;50.390;8.640;2023-04-02T01:08:24;98240.38;;;7.76;100.00
54389;BME280;40975;50.390;8.640;2023-04-02T01:11:30;98245.53;;;7.78;100.00
54389;BME280;40975;50.390;8.640;2023-04-02T01:17:19;98243.84;;;7.77;100.00
54389;BME280;40975;50.390;8.640;2023-04-02T01:22:47;98251.78;;;7.77;100.00
54389;BME280;40975;50.390;8.640;2023-04-02T01:25:21;98257.06;;;7.77;100.00
54389;BME280;40975;50.390;8.640;2023-04-02T01:27:56;98257.34;;;7.74;100.00
54389;BME280;40975;50.390;8.640;2023-04-02T01:30:29;98260.00;;;7.74;100.00
54389;BME280;40975;50.390;8.640;2023-04-02T01:32:55;98269.75;;;7.73;100.00
54389;BME280;40975;50.390;8.640;2023-04-02T01:35:21;98271.53;;;7.73;100.00
54389;BME280;40975;50.390;8.640;2023-04-02T01:38:00;98265.56;;;7.71;100.00
54389;BME280;40975;50.390;8.640;2023-04-02T01:40:55;98277.66;;;7.73;100.00
54389;BME280;40975;50.390;8.640;2023-04-02T01:43:29;98275.44;;;7.69;100.00
54389;BME280;40975;50.390;8.640;2023-04-02T01:45:57;98276.44;;;7.68;100.00
54389;BME280;40975;50.390;8.640;2023-04-02T01:48:25;98279.09;;;7.68;100.00
54389;BME280;40975;50.390;8.640;2023-04-02T01:50:55;98286.00;;;7.69;100.00
54389;BME280;40975;50.390;8.640;2023-04-02T01:53:24;98293.28;;;7.67;100.00
54389;BME280;40975;50.390;8.640;2023-04-02T01:55:54;98282.63;;;7.58;100.00
54389;BME280;40975;50.390;8.640;2023-04-02T01:58:26;98296.50;;;7.60;100.00
54389;BME280;40975;50.390;8.640;2023-04-02T02:01:04;98299.81;;;7.62;100.00
54389;BME280;40975;50.390;8.640;2023-04-02T02:03:31;98294.53;;;7.62;100.00
54389;BME280;40975;50.390;8.640;2023-04-02T02:05:58;98301.63;;;7.62;100.00
54389;BME280;40975;50.390;8.640;2023-04-02T02:08:43;98305.09;;;7.62;100.00
54389;BME280;40975;50.390;8.640;2023-04-02T02:11:13;98300.66;;;7.63;100.00
54389;BME280;40975;50.390;8.640;2023-04-02T02:13:45;98308.44;;;7.65;100.00
54389;BME280;40975;50.390;8.640;2023-04-02T02:16:15;98314.41;;;7.67;100.00
54389;BME280;40975;50.390;8.640;2023-04-02T02:18:45;98310.09;;;7.66;100.00
54389;BME280;40975;50.390;8.640;2023-04-02T02:21:20;98312.72;;;7.66;100.00
54389;BME280;40975;50.390;8.640;2023-04-02T02:23:48;98314.53;;;7.65;100.00
54389;BME280;40975;50.390;8.640;2023-04-02T02:26:13;98308.63;;;7.53;100.00
54389;BME280;40975;50.390;8.640;2023-04-02T02:28:41;98313.38;;;7.50;100.00
54389;BME280;40975;50.390;8.640;2023-04-02T02:31:18;98327.25;;;7.52;100.00
54389;BME280;40975;50.390;8.640;2023-04-02T02:33:50;98335.75;;;7.45;100.00
54389;BME280;40975;50.390;8.640;2023-04-02T02:36:23;98328.28;;;7.41;100.00
54389;BME280;40975;50.390;8.640;2023-04-02T02:38:57;98335.63;;;7.47;100.00
54389;BME280;40975;50.390;8.640;2023-04-02T02:41:40;98337.41;;;7.46;100.00
54389;BME280;40975;50.390;8.640;2023-04-02T02:46:43;98342.75;;;7.37;100.00
54389;BME280;40975;50.390;8.640;2023-04-02T02:49:20;98349.25;;;7.42;100.00
54389;BME280;40975;50.390;8.640;2023-04-02T02:51:54;98355.34;;;7.43;100.00
54389;BME280;40975;50.390;8.640;2023-04-02T02:54:28;98358.44;;;7.38;100.00
54389;BME280;40975;50.390;8.640;2023-04-02T02:57:00;98359.13;;;7.40;100.00
54389;BME280;40975;50.390;8.640;2023-04-02T02:59:28;98364.13;;;7.43;100.00
54389;BME280;40975;50.390;8.640;2023-04-02T03:01:54;98365.38;;;7.39;100.00
54389;BME280;40975;50.390;8.640;2023-04-02T03:04:21;98370.66;;;7.39;100.00
54389;BME280;40975;50.390;8.640;2023-04-02T03:06:50;98377.34;;;7.43;100.00
54389;BME280;40975;50.390;8.640;2023-04-02T03:09:35;98373.16;;;7.41;100.00
54389;BME280;40975;50.390;8.640;2023-04-02T03:17:31;98378.16;;;7.34;100.00
54389;BME280;40975;50.390;8.640;2023-04-02T03:22:52;98387.31;;;7.40;100.00
54389;BME280;40975;50.390;8.640;2023-04-02T03:25:27;98395.66;;;7.45;100.00
54389;BME280;40975;50.390;8.640;2023-04-02T03:28:00;98398.03;;;7.38;100.00
54389;BME280;40975;50.390;8.640;2023-04-02T03:33:13;98409.00;;;7.43;100.00
54389;BME280;40975;50.390;8.640;2023-04-02T03:38:32;98417.47;;;7.47;100.00
54389;BME280;40975;50.390;8.640;2023-04-02T03:41:05;98411.09;;;7.40;100.00
54389;BME280;40975;50.390;8.640;2023-04-02T03:43:57;98423.84;;;7.44;100.00
54389;BME280;40975;50.390;8.640;2023-04-02T03:46:28;98423.03;;;7.44;100.00
54389;BME280;40975;50.390;8.640;2023-04-02T03:49:08;98439.84;;;7.43;100.00
54389;BME280;40975;50.390;8.640;2023-04-02T03:54:14;98435.41;;;7.43;100.00
54389;BME280;40975;50.390;8.640;2023-04-02T03:56:42;98443.34;;;7.43;100.00
54389;BME280;40975;50.390;8.640;2023-04-02T04:02:10;98442.34;;;7.44;100.00
54389;BME280;40975;50.390;8.640;2023-04-02T04:04:39;98453.47;;;7.48;100.00
54389;BME280;40975;50.390;8.640;2023-04-02T04:07:15;98453.03;;;7.43;100.00
54389;BME280;40975;50.390;8.640;2023-04-02T04:09:45;98458.31;;;7.43;100.00
54389;BME280;40975;50.390;8.640;2023-04-02T04:15:01;98465.66;;;7.49;100.00
54389;BME280;40975;50.390;8.640;2023-04-02T04:20:52;98467.47;;;7.49;100.00
54389;BME280;40975;50.390;8.640;2023-04-02T04:23:35;98474.16;;;7.53;100.00
54389;BME280;40975;50.390;8.640;2023-04-02T04:26:07;98483.72;;;7.54;100.00
54389;BME280;40975;50.390;8.640;2023-04-02T04:29:06;98485.25;;;7.56;100.00
54389;BME280;40975;50.390;8.640;2023-04-02T04:31:42;98501.81;;;7.58;100.00
54389;BME280;40975;50.390;8.640;2023-04-02T04:34:25;98501.22;;;7.55;100.00
54389;BME280;40975;50.390;8.640;2023-04-02T04:36:58;98506.81;;;7.52;100.00
54389;BME280;40975;50.390;8.640;2023-04-02T04:42:00;98514.59;;;7.53;100.00
54389;BME280;40975;50.390;8.640;2023-04-02T04:47:10;98536.81;;;7.60;100.00
54389;BME280;40975;50.390;8.640;2023-04-02T04:49:46;98537.16;;;7.18;100.00
54389;BME280;40975;50.390;8.640;2023-04-02T04:52:19;98545.31;;;7.05;100.00
54389;BME280;40975;50.390;8.640;2023-04-02T04:54:46;98552.53;;;6.93;100.00
54389;BME280;40975;50.390;8.640;2023-04-02T04:57:34;98562.22;;;6.83;100.00
54389;BME280;40975;50.390;8.640;2023-04-02T05:00:12;98551.78;;;6.62;100.00
54389;BME280;40975;50.390;8.640;2023-04-02T05:02:47;98577.19;;;6.63;100.00
54389;BME280;40975;50.390;8.640;2023-04-02T05:05:18;98578.97;;;6.52;100.00
54389;BME280;40975;50.390;8.640;2023-04-02T05:07:50;98579.47;;;6.36;100.00
54389;BME280;40975;50.390;8.640;2023-04-02T05:12:54;98591.09;;;6.34;100.00
54389;BME280;40975;50.390;8.640;2023-04-02T05:15:27;98597.06;;;6.36;100.00
54389;BME280;40975;50.390;8.640;2023-04-02T05:20:49;98616.06;;;6.30;100.00
54389;BME280;40975;50.390;8.640;2023-04-02T05:23:29;98622.69;;;6.24;100.00
54389;BME280;40975;50.390;8.640;2023-04-02T05:26:22;98626.94;;;6.15;100.00
54389;BME280;40975;50.390;8.640;2023-04-02T05:31:23;98634.19;;;6.23;100.00
54389;BME280;40975;50.390;8.640;2023-04-02T05:33:51;98635.78;;;6.14;100.00
54389;BME280;40975;50.390;8.640;2023-04-02T05:36:23;98638.56;;;6.13;100.00
54389;BME280;40975;50.390;8.640;2023-04-02T05:38:54;98645.56;;;6.02;100.00
54389;BME280;40975;50.390;8.640;2023-04-02T05:41:31;98651.75;;;6.13;100.00
54389;BME280;40975;50.390;8.640;2023-04-02T05:44:10;98651.31;;;6.07;100.00
54389;BME280;40975;50.390;8.640;2023-04-02T05:46:56;98657.66;;;6.05;100.00
54389;BME280;40975;50.390;8.640;2023-04-02T05:52:21;98666.00;;;6.10;100.00
54389;BME280;40975;50.390;8.640;2023-04-02T05:54:51;98678.94;;;6.13;100.00
54389;BME280;40975;50.390;8.640;2023-04-02T05:57:24;98679.44;;;6.07;100.00
54389;BME280;40975;50.390;8.640;2023-04-02T05:59:59;98694.16;;;6.10;100.00
54389;BME280;40975;50.390;8.640;2023-04-02T06:02:35;98685.34;;;5.99;100.00
54389;BME280;40975;50.390;8.640;2023-04-02T06:05:22;98698.88;;;5.95;100.00
54389;BME280;40975;50.390;8.640;2023-04-02T06:08:10;98706.72;;;5.85;100.00
54389;BME280;40975;50.390;8.640;2023-04-02T06:10:44;98716.22;;;5.97;100.00
54389;BME280;40975;50.390;8.640;2023-04-02T06:13:16;98724.38;;;5.94;100.00
54389;BME280;40975;50.390;8.640;2023-04-02T06:15:43;98724.56;;;5.81;100.00
54389;BME280;40975;50.390;8.640;2023-04-02T06:18:28;98743.25;;;5.78;100.00
54389;BME280;40975;50.390;8.640;2023-04-02T06:20:56;98729.00;;;5.69;100.00
54389;BME280;40975;50.390;8.640;2023-04-02T06:28:54;98761.88;;;5.86;100.00
54389;BME280;40975;50.390;8.640;2023-04-02T06:31:29;98769.75;;;5.98;100.00
54389;BME280;40975;50.390;8.640;2023-04-02T06:34:03;98777.88;;;5.95;100.00
54389;BME280;40975;50.390;8.640;2023-04-02T06:36:32;98776.94;;;5.96;100.00
54389;BME280;40975;50.390;8.640;2023-04-02T06:39:09;98790.59;;;5.89;100.00
54389;BME280;40975;50.390;8.640;2023-04-02T06:41:36;98785.25;;;5.80;100.00
54389;BME280;40975;50.390;8.640;2023-04-02T06:44:20;98796.63;;;5.80;100.00
54389;BME280;40975;50.390;8.640;2023-04-02T06:47:18;98804.19;;;5.73;100.00
54389;BME280;40975;50.390;8.640;2023-04-02T06:49:52;98801.69;;;5.60;100.00
54389;BME280;40975;50.390;8.640;2023-04-02T06:52:28;98806.75;;;5.52;100.00
54389;BME280;40975;50.390;8.640;2023-04-02T06:54:57;98815.94;;;5.58;100.00
54389;BME280;40975;50.390;8.640;2023-04-02T06:57:23;98824.66;;;5.58;100.00
54389;BME280;40975;50.390;8.640;2023-04-02T06:59:50;98824.44;;;5.50;100.00
54389;BME280;40975;50.390;8.640;2023-04-02T07:04:50;98853.41;;;5.50;100.00
54389;BME280;40975;50.390;8.640;2023-04-02T07:07:17;98856.03;;;5.39;100.00
54389;BME280;40975;50.390;8.640;2023-04-02T07:09:44;98858.19;;;5.45;100.00
54389;BME280;40975;50.390;8.640;2023-04-02T07:12:11;98869.06;;;5.40;100.00
54389;BME280;40975;50.390;8.640;2023-04-02T07:14:37;98887.16;;;5.34;100.00
54389;BME280;40975;50.390;8.640;2023-04-02T07:17:03;98881.38;;;5.28;100.00
54389;BME280;40975;50.390;8.640;2023-04-02T07:19:28;98890.47;;;5.13;100.00
54389;BME280;40975;50.390;8.640;2023-04-02T07:21:56;98898.25;;;5.14;100.00
54389;BME280;40975;50.390;8.640;2023-04-02T07:24:23;98890.66;;;4.87;100.00
54389;BME280;40975;50.390;8.640;2023-04-02T07:26:49;98897.13;;;4.94;100.00
54389;BME280;40975;50.390;8.640;2023-04-02T07:29:15;98910.91;;;4.98;100.00
54389;BME280;40975;50.390;8.640;2023-04-02T07:31:41;98914.84;;;5.04;100.00
54389;BME280;40975;50.390;8.640;2023-04-02T07:34:07;98902.66;;;5.03;100.00
54389;BME280;40975;50.390;8.640;2023-04-02T07:36:32;98914.22;;;5.00;100.00
54389;BME280;40975;50.390;8.640;2023-04-02T07:38:58;98929.09;;;5.12;100.00
54389;BME280;40975;50.390;8.640;2023-04-02T07:41:23;98928.72;;;5.06;100.00
54389;BME280;40975;50.390;8.640;2023-04-02T07:43:49;98934.47;;;5.11;100.00
54389;BME280;40975;50.390;8.640;2023-04-02T07:46:15;98937.09;;;5.11;100.00
54389;BME280;40975;50.390;8.640;2023-04-02T07:48:43;98943.56;;;5.18;100.00
54389;BME280;40975;50.390;8.640;2023-04-02T07:51:22;98949.34;;;5.23;100.00
54389;BME280;40975;50.390;8.640;2023-04-02T07:53:48;98963.19;;;5.25;100.00
54389;BME280;40975;50.390;8.640;2023-04-02T07:56:17;98969.78;;;5.31;100.00
54389;BME280;40975;50.390;8.640;2023-04-02T07:58:43;98976.69;;;5.21;100.00
54389;BME280;40975;50.390;8.640;2023-04-02T08:01:20;98983.97;;;5.17;100.00
54389;BME280;40975;50.390;8.640;2023-04-02T08:03:50;98978.84;;;5.16;100.00
54389;BME280;40975;50.390;8.640;2023-04-02T08:06:16;98988.50;;;5.15;100.00
54389;BME280;40975;50.390;8.640;2023-04-02T08:08:41;98994.75;;;5.14;100.00
54389;BME280;40975;50.390;8.640;2023-04-02T08:11:07;99002.47;;;5.04;100.00
54389;BME280;40975;50.390;8.640;2023-04-02T08:13:32;99007.13;;;5.01;100.00
54389;BME280;40975;50.390;8.640;2023-04-02T08:15:58;99014.50;;;4.95;100.00
54389;BME280;40975;50.390;8.640;2023-04-02T08:18:24;99016.78;;;4.89;100.00
54389;BME280;40975;50.390;8.640;2023-04-02T08:20:51;99026.09;;;4.93;100.00
54389;BME280;40975;50.390;8.640;2023-04-02T08:23:18;99025.97;;;4.83;100.00
54389;BME280;40975;50.390;8.640;2023-04-02T08:25:44;99044.66;;;4.91;100.00
54389;BME280;40975;50.390;8.640;2023-04-02T08:28:10;99052.25;;;4.83;100.00
54389;BME280;40975;50.390;8.640;2023-04-02T08:30:35;99052.41;;;4.69;100.00
54389;BME280;40975;50.390;8.640;2023-04-02T08:33:01;99048.81;;;4.70;100.00
54389;BME280;40975;50.390;8.640;2023-04-02T08:35:27;99062.09;;;4.68;100.00
54389;BME280;40975;50.390;8.640;2023-04-02T08:37:52;99060.81;;;4.74;100.00
54389;BME280;40975;50.390;8.640;2023-04-02T08:40:24;99069.41;;;4.76;100.00
54389;BME280;40975;50.390;8.640;2023-04-02T08:43:03;99065.06;;;4.63;100.00
54389;BME280;40975;50.390;8.640;2023-04-02T08:45:54;99079.38;;;4.83;100.00
54389;BME280;40975;50.390;8.640;2023-04-02T08:48:24;99076.97;;;4.80;100.00
54389;BME280;40975;50.390;8.640;2023-04-02T08:50:50;99090.63;;;4.86;100.00
54389;BME280;40975;50.390;8.640;2023-04-02T08:53:19;99103.94;;;4.95;100.00
54389;BME280;40975;50.390;8.640;2023-04-02T09:03:59;99125.03;;;4.82;100.00
54389;BME280;40975;50.390;8.640;2023-04-02T09:06:25;99113.78;;;4.80;100.00
54389;BME280;40975;50.390;8.640;2023-04-02T09:08:54;99125.91;;;5.07;100.00
54389;BME280;40975;50.390;8.640;2023-04-02T09:11:29;99139.88;;;5.08;100.00
54389;BME280;40975;50.390;8.640;2023-04-02T09:13:58;99140.41;;;5.13;100.00
54389;BME280;40975;50.390;8.640;2023-04-02T09:16:37;99132.72;;;5.10;100.00
54389;BME280;40975;50.390;8.640;2023-04-02T09:19:14;99151.44;;;5.18;100.00
54389;BME280;40975;50.390;8.640;2023-04-02T09:21:44;99160.13;;;5.32;100.00
54389;BME280;40975;50.390;8.640;2023-04-02T09:24:11;99151.13;;;5.58;100.00
54389;BME280;40975;50.390;8.640;2023-04-02T09:26:39;99160.16;;;5.67;100.00
54389;BME280;40975;50.390;8.640;2023-04-02T09:31:39;99172.31;;;5.33;100.00
54389;BME280;40975;50.390;8.640;2023-04-02T09:34:30;99181.22;;;5.43;100.00
54389;BME280;40975;50.390;8.640;2023-04-02T09:36:56;99179.63;;;5.40;100.00
54389;BME280;40975;50.390;8.640;2023-04-02T09:39:31;99188.59;;;5.38;100.00
54389;BME280;40975;50.390;8.640;2023-04-02T09:41:56;99201.78;;;5.38;100.00
54389;BME280;40975;50.390;8.640;2023-04-02T09:44:24;99201.66;;;5.39;100.00
54389;BME280;40975;50.390;8.640;2023-04-02T09:47:02;99200.41;;;5.56;100.00
54389;BME280;40975;50.390;8.640;2023-04-02T09:49:33;99210.84;;;5.58;100.00
54389;BME280;40975;50.390;8.640;2023-04-02T09:52:19;99217.28;;;5.54;100.00
54389;BME280;40975;50.390;8.640;2023-04-02T09:55:03;99219.25;;;5.63;100.00
54389;BME280;40975;50.390;8.640;2023-04-02T09:57:30;99225.53;;;5.73;100.00
54389;BME280;40975;50.390;8.640;2023-04-02T10:00:17;99224.69;;;5.73;100.00
54389;BME280;40975;50.390;8.640;2023-04-02T10:02:45;99234.25;;;5.74;100.00
54389;BME280;40975;50.390;8.640;2023-04-02T10:05:18;99230.94;;;5.59;100.00
54389;BME280;40975;50.390;8.640;2023-04-02T10:07:47;99217.63;;;5.49;100.00
54389;BME280;40975;50.390;8.640;2023-04-02T10:10:23;99246.38;;;5.76;100.00
54389;BME280;40975;50.390;8.640;2023-04-02T10:13:20;99247.97;;;5.90;100.00
54389;BME280;40975;50.390;8.640;2023-04-02T10:16:08;99248.53;;;5.83;100.00
54389;BME280;40975;50.390;8.640;2023-04-02T10:18:48;99253.41;;;5.76;100.00
54389;BME280;40975;50.390;8.640;2023-04-02T10:21:17;99259.75;;;5.49;100.00
54389;BME280;40975;50.390;8.640;2023-04-02T10:23:44;99267.44;;;5.39;100.00
54389;BME280;40975;50.390;8.640;2023-04-02T10:26:17;99262.63;;;5.33;100.00
54389;BME280;40975;50.390;8.640;2023-04-02T10:29:08;99278.97;;;5.25;100.00
54389;BME280;40975;50.390;8.640;2023-04-02T10:37:19;99290.44;;;5.37;100.00
54389;BME280;40975;50.390;8.640;2023-04-02T10:39:55;99291.09;;;5.28;100.00
54389;BME280;40975;50.390;8.640;2023-04-02T10:42:32;99293.19;;;5.23;100.00
54389;BME280;40975;50.390;8.640;2023-04-02T10:45:18;99293.63;;;5.17;100.00
54389;BME280;40975;50.390;8.640;2023-04-02T10:47:54;99308.69;;;5.14;100.00
54389;BME280;40975;50.390;8.640;2023-04-02T10:50:30;99311.66;;;4.97;100.00
54389;BME280;40975;50.390;8.640;2023-04-02T10:53:20;99314.59;;;4.92;100.00
54389;BME280;40975;50.390;8.640;2023-04-02T10:55:55;99321.63;;;4.92;100.00
54389;BME280;40975;50.390;8.640;2023-04-02T10:58:24;99331.00;;;4.96;100.00
54389;BME280;40975;50.390;8.640;2023-04-02T11:00:54;99329.19;;;4.96;100.00
54389;BME280;40975;50.390;8.640;2023-04-02T11:05:54;99346.88;;;5.07;100.00
54389;BME280;40975;50.390;8.640;2023-04-02T11:08:41;99340.78;;;5.07;100.00
54389;BME280;40975;50.390;8.640;2023-04-02T11:11:13;99345.50;;;5.27;100.00
54389;BME280;40975;50.390;8.640;2023-04-02T11:13:57;99351.50;;;5.29;100.00
54389;BME280;40975;50.390;8.640;2023-04-02T11:16:25;99359.81;;;5.36;100.00
54389;BME280;40975;50.390;8.640;2023-04-02T11:24:48;99368.13;;;5.30;100.00
54389;BME280;40975;50.390;8.640;2023-04-02T11:27:29;99370.53;;;5.46;100.00
54389;BME280;40975;50.390;8.640;2023-04-02T11:30:21;99370.72;;;5.56;100.00
54389;BME280;40975;50.390;8.640;2023-04-02T11:32:48;99372.78;;;5.76;100.00
54389;BME280;40975;50.390;8.640;2023-04-02T11:38:46;99380.31;;;5.94;100.00
54389;BME280;40975;50.390;8.640;2023-04-02T11:40:54;99380.78;;;5.88;100.00
54389;BME280;40975;50.390;8.640;2023-04-02T11:48:41;99402.91;;;5.72;100.00
54389;BME280;40975;50.390;8.640;2023-04-02T11:53:44;99408.47;;;5.94;100.00
54389;BME280;40975;50.390;8.640;2023-04-02T11:56:24;99415.28;;;6.09;100.00
54389;BME280;40975;50.390;8.640;2023-04-02T12:01:58;99426.66;;;5.97;100.00
54389;BME280;40975;50.390;8.640;2023-04-02T12:10:16;99434.13;;;5.53;100.00
54389;BME280;40975;50.390;8.640;2023-04-02T12:12:42;99442.66;;;5.43;100.00
54389;BME280;40975;50.390;8.640;2023-04-02T12:18:24;99455.00;;;5.43;100.00
54389;BME280;40975;50.390;8.640;2023-04-02T12:20:55;99451.09;;;5.49;100.00
54389;BME280;40975;50.390;8.640;2023-04-02T12:23:24;99456.78;;;5.68;100.00
54389;BME280;40975;50.390;8.640;2023-04-02T12:26:02;99456.34;;;5.62;100.00
54389;BME280;40975;50.390;8.640;2023-04-02T12:28:31;99449.09;;;5.52;100.00
54389;BME280;40975;50.390;8.640;2023-04-02T12:33:34;99463.06;;;5.66;100.00
54389;BME280;40975;50.390;8.640;2023-04-02T12:36:04;99461.38;;;5.65;100.00
54389;BME280;40975;50.390;8.640;2023-04-02T12:38:41;99472.78;;;5.65;100.00
54389;BME280;40975;50.390;8.640;2023-04-02T12:41:25;99474.34;;;5.55;100.00
54389;BME280;40975;50.390;8.640;2023-04-02T12:44:16;99480.47;;;5.68;100.00
54389;BME280;40975;50.390;8.640;2023-04-02T12:46:43;99484.78;;;5.56;100.00
54389;BME280;40975;50.390;8.640;2023-04-02T12:49:37;99490.38;;;5.78;100.00
54389;BME280;40975;50.390;8.640;2023-04-02T12:52:16;99489.59;;;5.88;100.00
54389;BME280;40975;50.390;8.640;2023-04-02T12:55:02;99491.16;;;5.91;100.00
54389;BME280;40975;50.390;8.640;2023-04-02T13:02:49;99496.16;;;5.70;100.00
54389;BME280;40975;50.390;8.640;2023-04-02T13:05:35;99509.97;;;5.60;100.00
54389;BME280;40975;50.390;8.640;2023-04-02T13:08:03;99505.00;;;5.56;100.00
54389;BME280;40975;50.390;8.640;2023-04-02T13:10:29;99510.47;;;5.66;100.00
54389;BME280;40975;50.390;8.640;2023-04-02T13:12:56;99514.47;;;5.58;100.00
54389;BME280;40975;50.390;8.640;2023-04-02T13:15:26;99524.13;;;5.32;100.00
54389;BME280;40975;50.390;8.640;2023-04-02T13:20:40;99530.78;;;5.38;100.00
54389;BME280;40975;50.390;8.640;2023-04-02T13:25:53;99535.53;;;5.33;100.00
54389;BME280;40975;50.390;8.640;2023-04-02T13:28:20;99536.16;;;5.36;100.00
54389;BME280;40975;50.390;8.640;2023-04-02T13:30:46;99531.66;;;5.38;100.00
54389;BME280;40975;50.390;8.640;2023-04-02T13:33:13;99536.59;;;5.43;100.00
54389;BME280;40975;50.390;8.640;2023-04-02T13:35:38;99546.56;;;5.38;100.00
54389;BME280;40975;50.390;8.640;2023-04-02T13:38:04;99542.25;;;5.24;100.00
54389;BME280;40975;50.390;8.640;2023-04-02T13:40:31;99544.53;;;5.16;100.00
54389;BME280;40975;50.390;8.640;2023-04-02T13:42:57;99552.97;;;5.21;100.00
54389;BME280;40975;50.390;8.640;2023-04-02T13:45:25;99547.31;;;5.27;100.00
54389;BME280;40975;50.390;8.640;2023-04-02T13:47:52;99552.75;;;5.24;100.00
54389;BME280;40975;50.390;8.640;2023-04-02T13:50:20;99554.47;;;5.25;100.00
54389;BME280;40975;50.390;8.640;2023-04-02T13:52:47;99549.06;;;5.26;100.00
54389;BME280;40975;50.390;8.640;2023-04-02T13:55:16;99553.38;;;5.14;100.00
54389;BME280;40975;50.390;8.640;2023-04-02T13:57:42;99566.41;;;5.16;100.00
54389;BME280;40975;50.390;8.640;2023-04-02T14:00:08;99576.44;;;5.24;100.00
54389;BME280;40975;50.390;8.640;2023-04-02T14:02:34;99563.78;;;5.16;100.00
54389;BME280;40975;50.390;8.640;2023-04-02T14:05:20;99569.47;;;5.10;100.00
54389;BME280;40975;50.390;8.640;2023-04-02T14:08:01;99579.19;;;4.95;100.00
54389;BME280;40975;50.390;8.640;2023-04-02T14:11:10;99582.78;;;4.94;100.00
54389;BME280;40975;50.390;8.640;2023-04-02T14:19:06;99603.22;;;5.31;100.00
54389;BME280;40975;50.390;8.640;2023-04-02T14:22:36;99605.16;;;5.14;100.00
54389;BME280;40975;50.390;8.640;2023-04-02T14:24:42;99612.88;;;5.30;100.00
54389;BME280;40975;50.390;8.640;2023-04-02T14:27:23;99605.38;;;5.11;100.00
54389;BME280;40975;50.390;8.640;2023-04-02T14:32:36;99608.66;;;5.00;100.00
54389;BME280;40975;50.390;8.640;2023-04-02T14:35:56;99620.88;;;5.01;100.00
54389;BME280;40975;50.390;8.640;2023-04-02T14:39:16;99627.84;;;5.02;100.00
54389;BME280;40975;50.390;8.640;2023-04-02T14:41:29;99634.69;;;4.77;100.00
54389;BME280;40975;50.390;8.640;2023-04-02T14:44:03;99628.78;;;4.74;100.00
54389;BME280;40975;50.390;8.640;2023-04-02T14:46:30;99637.88;;;4.68;100.00
54389;BME280;40975;50.390;8.640;2023-04-02T14:49:03;99640.22;;;4.73;100.00
54389;BME280;40975;50.390;8.640;2023-04-02T14:54:35;99649.81;;;4.59;100.00
54389;BME280;40975;50.390;8.640;2023-04-02T14:57:23;99652.72;;;4.55;100.00
54389;BME280;40975;50.390;8.640;2023-04-02T15:00:20;99664.47;;;4.63;100.00
54389;BME280;40975;50.390;8.640;2023-04-02T15:02:55;99654.31;;;4.57;100.00
54389;BME280;40975;50.390;8.640;2023-04-02T15:05:47;99668.88;;;4.48;100.00
54389;BME280;40975;50.390;8.640;2023-04-02T15:08:29;99674.22;;;4.61;100.00
54389;BME280;40975;50.390;8.640;2023-04-02T15:11:00;99676.75;;;4.63;100.00
54389;BME280;40975;50.390;8.640;2023-04-02T15:16:35;99684.25;;;4.40;100.00
54389;BME280;40975;50.390;8.640;2023-04-02T15:19:03;99674.50;;;4.57;100.00
54389;BME280;40975;50.390;8.640;2023-04-02T15:21:48;99684.75;;;4.61;100.00
54389;BME280;40975;50.390;8.640;2023-04-02T15:43:17;99694.47;;;4.88;98.08
54389;BME280;40975;50.390;8.640;2023-04-02T15:45:50;99699.75;;;4.88;97.31
54389;BME280;40975;50.390;8.640;2023-04-02T15:51:03;99699.28;;;4.53;95.62
54389;BME280;40975;50.390;8.640;2023-04-02T15:56:45;99718.28;;;4.58;99.01
54389;BME280;40975;50.390;8.640;2023-04-02T16:05:03;99729.63;;;4.44;100.00
54389;BME280;40975;50.390;8.640;2023-04-02T16:10:38;99729.41;;;4.32;100.00
54389;BME280;40975;50.390;8.640;2023-04-02T16:16:06;99738.72;;;4.38;100.00
54389;BME280;40975;50.390;8.640;2023-04-02T16:21:33;99745.81;;;4.22;99.64
54389;BME280;40975;50.390;8.640;2023-04-02T16:24:01;99741.59;;;4.19;96.58
54389;BME280;40975;50.390;8.640;2023-04-02T16:26:32;99746.94;;;4.17;96.27
54389;BME280;40975;50.390;8.640;2023-04-02T16:31:54;99759.31;;;4.30;97.52
54389;BME280;40975;50.390;8.640;2023-04-02T16:40:18;99768.69;;;4.19;97.99
54389;BME280;40975;50.390;8.640;2023-04-02T16:42:52;99772.22;;;4.04;95.36